Time;durP1;ratioP1;P1;durP2;ratioP2;P2;SDS_P1;SDS_P2;PMS_P1;PMS_P2;Temp;Humidity;BMP_temperature;BMP_pressure;BME280_temperature;BME280_humidity;BME280_pressure;Samples;Min_cycle;Max_cycle;Signal;HPM_P1;HPM_P2
2022/02/04 00:24:55;;;;;;;;;23.67;22.33;;;;;3.87;63.31;99837.44;6280833;20;3568111;-46
2022/02/04 00:27:26;;;;;;;;;22.50;19.50;;;;;3.85;63.14;99837.50;6284711;20;2821101;-46
2022/02/04 00:30:04;;;;;;;;;23.67;19.00;;;;;4.03;63.05;99838.72;6281086;20;3586886;-47
2022/02/04 00:32:35;;;;;;;;;12.67;12.67;;;;;4.13;63.29;99849.91;6312707;20;2799428;-45
2022/02/04 00:35:20;;;;;;;;;23.33;18.00;;;;;3.91;63.33;99852.38;6308319;20;3548140;-46
2022/02/04 00:38:06;;;;;;;;;21.50;16.00;;;;;4.05;63.01;99852.81;6317492;20;2831573;-45
2022/02/04 00:40:39;;;;;;;;;18.00;16.00;;;;;4.21;62.92;99857.63;6278348;20;3559026;-45
2022/02/04 00:43:12;;;;;;;;;24.67;16.33;;;;;4.09;62.81;99854.44;6312596;20;3567070;-45
2022/02/04 00:48:47;;;;;;;;;20.00;18.67;;;;;4.09;63.15;99857.09;6284249;20;3544024;-45
2022/02/04 00:51:27;;;;;;;;;19.00;13.00;;;;;4.22;62.50;99849.59;6316565;20;2819248;-48
2022/02/04 01:13:27;;;;;;;;;19.00;16.33;;;;;3.99;62.64;99813.16;6313366;20;3563775;-47
2022/02/04 01:27:19;;;;;;;;;12.33;12.33;;;;;3.98;63.06;99782.22;6313516;20;2802448;-45
2022/02/04 01:30:16;;;;;;;;;17.50;13.00;;;;;4.06;63.27;99776.66;6311211;20;2818074;-45
2022/02/04 01:32:38;;;;;;;;;12.75;11.00;;;;;4.07;63.06;99776.56;6300037;20;1821666;-45
2022/02/04 01:35:08;;;;;;;;;18.33;15.00;;;;;4.17;62.61;99771.84;6309470;20;3562785;-45
2022/02/04 01:37:36;;;;;;;;;19.33;14.67;;;;;3.98;63.46;99766.28;6312151;20;3530460;-46
2022/02/04 01:40:06;;;;;;;;;19.67;14.67;;;;;3.86;63.36;99761.34;6309161;20;2810770;-45
2022/02/04 01:42:35;;;;;;;;;16.00;14.67;;;;;4.14;63.23;99759.50;6310650;20;3548193;-45
2022/02/04 01:45:04;;;;;;;;;15.00;9.00;;;;;3.93;63.45;99757.59;6307352;20;2771752;-45
2022/02/04 01:47:35;;;;;;;;;17.17;14.83;;;;;3.88;63.36;99755.06;6304489;20;2827384;-45
2022/02/04 01:50:05;;;;;;;;;17.20;13.00;;;;;4.12;63.10;99764.00;6337171;20;2823340;-45
2022/02/04 01:52:33;;;;;;;;;15.00;13.00;;;;;3.78;63.71;99760.75;6283442;20;2671117;-45
2022/02/04 01:55:01;;;;;;;;;13.00;13.00;;;;;3.83;63.98;99766.78;6307583;20;2786816;-45
2022/02/04 01:57:33;;;;;;;;;12.20;12.20;;;;;3.72;64.00;99765.34;6304021;20;2791944;-44
2022/02/04 02:00:03;;;;;;;;;23.00;15.67;;;;;3.71;64.12;99763.59;6277456;20;3565883;-45
2022/02/04 02:02:34;;;;;;;;;13.57;13.00;;;;;3.76;64.08;99766.09;6350511;20;1819264;-47
2022/02/04 02:05:05;;;;;;;;;15.40;11.80;;;;;3.99;63.63;99761.81;6334748;20;2793112;-45
2022/02/04 02:07:45;;;;;;;;;10.00;9.50;;;;;4.04;63.19;99754.56;6320863;20;2484634;-45
2022/02/04 02:10:18;;;;;;;;;15.00;12.00;;;;;4.16;63.44;99752.38;6282211;20;2788810;-45
2022/02/04 02:13:01;;;;;;;;;16.00;13.00;;;;;4.10;63.43;99744.59;6307650;20;2795076;-45
2022/02/04 02:16:13;;;;;;;;;15.43;12.00;;;;;3.77;63.80;99737.78;6318552;20;1820548;-46
2022/02/04 02:59:28;;;;;;;;;8.50;8.00;;;;;4.52;61.88;99714.75;6281674;20;2747155;-46
2022/02/04 03:01:59;;;;;;;;;11.00;11.00;;;;;4.62;62.30;99712.63;6319538;20;1821108;-44
2022/02/04 03:04:26;;;;;;;;;9.00;9.00;;;;;4.32;62.94;99711.97;6279294;20;2741981;-47
2022/02/04 03:06:54;;;;;;;;;17.00;12.50;;;;;4.48;63.13;99712.28;6280064;20;2794062;-47
2022/02/04 03:09:22;;;;;;;;;14.00;14.00;;;;;4.49;62.71;99698.06;6281975;20;2800455;-45
2022/02/04 03:11:51;;;;;;;;;22.60;14.00;;;;;4.43;63.16;99700.97;6302889;20;2802363;-46
2022/02/04 03:14:20;;;;;;;;;27.00;21.67;;;;;4.34;62.57;99702.13;6281325;20;3558554;-45
2022/02/04 03:16:49;;;;;;;;;19.00;16.33;;;;;4.40;63.01;99697.47;6315923;20;3570051;-45
2022/02/04 03:19:18;;;;;;;;;35.00;23.00;;;;;4.25;62.88;99695.38;6316003;20;2849203;-45
2022/02/04 03:21:48;;;;;;;;;22.33;15.67;;;;;4.09;63.74;99688.88;6284055;20;3544373;-47
2022/02/04 03:24:20;;;;;;;;;20.00;15.00;;;;;4.41;63.19;99687.72;6313564;20;2810693;-45
2022/02/04 03:29:25;;;;;;;;;22.00;16.00;;;;;4.42;63.28;99686.78;6284905;20;3560704;-45
2022/02/04 03:31:59;;;;;;;;;17.00;11.00;;;;;4.10;63.90;99686.13;6315188;20;2786713;-45
2022/02/04 03:34:30;;;;;;;;;19.17;16.17;;;;;4.35;63.98;99687.94;6307103;20;2826363;-48
2022/02/04 03:36:59;;;;;;;;;21.67;17.33;;;;;4.18;63.89;99689.38;6315468;20;3554451;-46
2022/02/04 03:39:27;;;;;;;;;22.33;18.00;;;;;4.36;63.73;99687.00;6312952;20;3556552;-48
2022/02/04 03:41:56;;;;;;;;;19.00;16.00;;;;;4.42;63.83;99680.59;6313104;20;3571196;-47
2022/02/04 03:44:24;;;;;;;;;16.00;12.00;;;;;4.48;63.78;99685.72;6313586;20;2793996;-48
2022/02/04 03:46:52;;;;;;;;;13.00;11.00;;;;;4.32;63.61;99680.09;6283936;20;2792988;-46
2022/02/04 03:49:20;;;;;;;;;16.00;14.00;;;;;4.23;64.63;99669.75;6314987;20;2792954;-45
2022/02/04 03:51:48;;;;;;;;;16.00;12.00;;;;;4.24;64.05;99666.19;6285161;20;2794097;-47
2022/02/04 03:54:17;;;;;;;;;19.00;14.00;;;;;4.17;64.00;99669.06;6282265;20;2818189;-47
2022/02/04 03:56:45;;;;;;;;;15.50;13.50;;;;;4.07;64.28;99672.97;6313220;20;2816971;-47
2022/02/04 03:59:14;;;;;;;;;17.00;11.80;;;;;4.40;63.50;99672.69;6308698;20;2792952;-46
2022/02/04 04:01:42;;;;;;;;;15.50;9.00;;;;;4.18;63.98;99665.47;6280348;20;2776773;-46
2022/02/04 04:04:11;;;;;;;;;17.00;13.67;;;;;4.30;63.95;99673.94;6282085;20;2820189;-47
2022/02/04 04:06:40;;;;;;;;;13.80;11.40;;;;;4.13;63.97;99670.13;6336258;20;2791002;-48
2022/02/04 04:09:08;;;;;;;;;19.50;11.00;;;;;4.29;63.50;99664.22;6281128;20;2806651;-45
2022/02/04 04:11:42;;;;;;;;;11.50;11.50;;;;;4.17;63.39;99666.41;6282510;20;2776375;-45
2022/02/04 04:14:09;;;;;;;;;17.00;12.50;;;;;4.25;63.99;99665.28;6283283;20;2812776;-45
2022/02/04 04:16:37;;;;;;;;;12.33;9.00;;;;;4.29;63.88;99670.44;6281081;20;3478404;-45
2022/02/04 04:19:05;;;;;;;;;13.00;10.00;;;;;3.87;63.69;99660.41;6282808;20;2775306;-45
2022/02/04 04:21:38;;;;;;;;;16.00;14.33;;;;;4.18;63.73;99652.19;6280085;20;2797231;-47
2022/02/04 04:24:06;;;;;;;;;22.00;14.00;;;;;3.93;64.33;99654.00;6315549;20;2611753;-45
2022/02/04 04:26:35;;;;;;;;;19.67;16.00;;;;;4.16;64.08;99659.38;6314445;20;2810696;-45
2022/02/04 04:29:04;;;;;;;;;19.00;15.00;;;;;4.15;64.46;99657.63;6314497;20;2803539;-48
2022/02/04 04:31:32;;;;;;;;;22.33;16.33;;;;;4.12;63.91;99663.03;6311675;20;3554840;-44
2022/02/04 04:34:01;;;;;;;;;22.00;14.00;;;;;4.01;63.84;99665.22;6311643;20;3558571;-45
2022/02/04 04:36:30;;;;;;;;;18.00;15.33;;;;;3.66;64.54;99658.44;6313357;20;2809693;-45
2022/02/04 04:39:12;;;;;;;;;23.00;15.00;;;;;3.94;63.89;99664.56;6314134;20;3555520;-47
2022/02/04 05:30:58;;;;;;;;;25.50;23.00;;;;;3.30;66.40;99666.72;6280994;20;2498229;-45
2022/02/04 05:33:27;;;;;;;;;31.00;27.00;;;;;2.97;67.86;99673.94;6280504;20;2500261;-44
2022/02/04 05:35:56;;;;;;;;;32.00;30.00;;;;;2.95;67.58;99678.44;6281491;20;2848235;-46
2022/02/04 05:38:26;;;;;;;;;43.00;35.50;;;;;3.11;67.45;99679.72;6279830;20;2500283;-44
2022/02/04 05:40:55;;;;;;;;;36.00;30.00;;;;;2.91;68.56;99669.72;6281554;20;2839851;-45
2022/02/04 05:43:28;;;;;;;;;38.67;28.67;;;;;2.62;69.49;99675.88;6276985;20;2864835;-45
2022/02/04 05:46:15;;;;;;;;;27.50;23.00;;;;;2.63;69.65;99670.56;6312741;20;2844124;-46
2022/02/04 05:48:48;;;;;;;;;23.00;22.67;;;;;2.86;68.98;99677.78;6279233;20;3577296;-44
2022/02/04 06:01:36;;;;;;;;;38.00;32.00;;;;;2.51;71.39;99668.25;6279933;20;2500272;-45
2022/02/04 06:10:04;;;;;;;;;31.00;28.00;;;;;2.65;70.62;99659.88;6281303;20;3591948;-45
2022/02/04 06:12:50;;;;;;;;;28.50;24.00;;;;;2.72;70.26;99653.50;6281486;20;2839886;-45
2022/02/04 06:23:33;;;;;;;;;81.00;63.50;;;;;2.63;70.83;99659.06;6313864;20;2871058;-45
2022/02/04 06:26:06;;;;;;;;;112.33;108.67;;;;;2.69;70.71;99658.91;6283320;20;3683577;-46
2022/02/04 06:28:38;;;;;;;;;262.67;197.00;;;;;2.73;70.56;99660.53;6280624;20;3716921;-45
2022/02/04 06:31:10;;;;;;;;;459.00;374.50;;;;;2.65;70.60;99662.53;6277708;20;3752320;-46
2022/02/04 06:33:41;;;;;;;;;146.25;114.75;;;;;2.65;71.32;99667.84;6285157;20;4495209;-45
2022/02/04 06:36:10;;;;;;;;;43.67;36.67;;;;;2.68;70.61;99665.09;6314708;20;2865932;-44
2022/02/04 06:38:39;;;;;;;;;34.67;33.33;;;;;2.92;70.64;99671.44;6315926;20;3583734;-45
2022/02/04 06:41:07;;;;;;;;;29.50;28.00;;;;;2.96;70.88;99661.63;6281391;20;2500284;-45
2022/02/04 06:43:36;;;;;;;;;39.00;31.50;;;;;2.91;69.32;99668.84;6279232;20;2860748;-45
2022/02/04 06:46:06;;;;;;;;;87.33;64.67;;;;;3.00;69.83;99668.53;6283474;20;2896180;-45
2022/02/04 06:48:35;;;;;;;;;269.00;231.75;;;;;3.11;69.96;99670.88;6316801;20;4480426;-45
2022/02/04 06:51:05;;;;;;;;;75.50;56.50;;;;;3.09;69.46;99668.28;6315541;20;2871100;-49
2022/02/04 06:53:34;;;;;;;;;65.00;48.50;;;;;3.26;68.72;99673.91;6282250;20;2870290;-49
2022/02/04 06:56:03;;;;;;;;;45.50;39.50;;;;;3.03;69.21;99677.28;6286896;20;2860665;-45
2022/02/04 06:58:33;;;;;;;;;49.33;40.33;;;;;3.16;70.01;99691.06;6285124;20;2858587;-47
2022/02/04 07:01:03;;;;;;;;;43.00;28.50;;;;;2.79;71.06;99676.25;6314402;20;2875257;-44
2022/02/04 07:03:33;;;;;;;;;31.50;25.50;;;;;2.88;70.81;99684.84;6283939;20;2858579;-45
2022/02/04 07:06:03;;;;;;;;;63.50;46.50;;;;;2.74;70.80;99679.94;6282602;20;2489913;-45
2022/02/04 07:16:32;;;;;;;;;55.50;43.50;;;;;3.06;70.13;99686.94;6315896;20;2500258;-44
2022/02/04 07:21:49;;;;;;;;;57.00;45.00;;;;;3.29;69.35;99699.47;6316693;20;2850276;-45
2022/02/04 07:24:18;;;;;;;;;47.00;37.50;;;;;2.93;70.66;99691.75;6281571;20;2869098;-45
2022/02/04 07:26:48;;;;;;;;;42.33;38.33;;;;;3.59;69.20;99689.66;6284162;20;2869286;-47
2022/02/04 07:29:20;;;;;;;;;41.33;37.67;;;;;3.71;67.51;99689.25;6314568;20;2869154;-45
2022/02/04 07:31:50;;;;;;;;;51.33;41.67;;;;;3.85;67.75;99682.63;6314999;20;2869281;-46
2022/02/04 07:34:48;;;;;;;;;56.00;44.00;;;;;4.59;65.63;99691.50;6315816;20;2869043;-45
2022/02/04 07:42:45;;;;;;;;;54.67;41.00;;;;;4.00;65.46;99695.34;6315352;20;3600345;-50
2022/02/04 07:45:15;;;;;;;;;58.00;43.33;;;;;5.03;63.33;99695.13;6312133;20;2882617;-50
2022/02/04 07:47:44;;;;;;;;;36.50;30.50;;;;;5.01;64.50;99696.97;6315521;20;2863832;-46
2022/02/04 07:50:13;;;;;;;;;59.33;46.00;;;;;4.81;63.97;99691.53;6282397;20;2881556;-46
2022/02/04 07:52:43;;;;;;;;;79.67;58.33;;;;;5.22;64.00;99699.72;6316135;20;3648152;-47
2022/02/04 07:55:11;;;;;;;;;62.50;51.00;;;;;5.45;62.08;99697.00;6312607;20;2856503;-45
2022/02/04 07:57:41;;;;;;;;;60.00;45.50;;;;;4.75;64.20;99694.44;6284979;20;2881589;-46
2022/02/04 08:00:14;;;;;;;;;59.33;45.67;;;;;4.80;63.47;99696.00;6283154;20;2869160;-47
2022/02/04 08:02:47;;;;;;;;;60.00;46.00;;;;;4.76;63.85;99705.00;6315264;20;2865984;-46
2022/02/04 08:05:19;;;;;;;;;64.50;48.00;;;;;4.56;64.92;99695.13;6282219;20;2864834;-46
2022/02/04 08:07:55;;;;;;;;;50.50;46.50;;;;;5.17;63.29;99685.72;6284285;20;2849367;-47
2022/02/04 08:10:42;;;;;;;;;73.00;56.00;;;;;5.58;61.98;99696.50;6280731;20;2500359;-46
2022/02/04 08:14:09;;;;;;;;;91.00;66.67;;;;;5.41;61.47;99687.41;6282771;20;2897305;-48
2022/02/04 08:22:01;;;;;;;;;51.00;41.67;;;;;6.15;59.15;99687.00;6281688;20;2870848;-47
2022/02/04 08:30:24;;;;;;;;;45.50;37.00;;;;;7.00;57.33;99670.72;6315449;20;2859610;-46
2022/02/04 08:38:17;;;;;;;;;45.50;38.50;;;;;6.65;57.66;99662.56;6282762;20;2861813;-46
2022/02/04 08:51:55;;;;;;;;;51.50;41.00;;;;;6.59;57.73;99655.69;6279240;20;2493043;-45
2022/02/04 08:55:11;;;;;;;;;68.00;49.00;;;;;6.65;57.75;99665.22;6282484;20;3649205;-46
2022/02/04 08:57:38;;;;;;;;;62.33;50.00;;;;;6.60;58.23;99659.22;6310934;20;2872243;-46
2022/02/04 09:01:00;;;;;;;;;42.00;39.00;;;;;6.26;58.09;99660.75;6312918;20;2860744;-45
2022/02/04 09:03:14;;;;;;;;;53.33;41.00;;;;;6.31;58.79;99660.53;6312484;20;2876477;-45
2022/02/04 09:05:45;;;;;;;;;49.00;41.00;;;;;6.80;57.88;99658.31;6312591;20;2873272;-46
2022/02/04 09:10:46;;;;;;;;;65.50;53.00;;;;;7.04;57.00;99656.31;6313755;20;2867010;-46
2022/02/04 09:19:00;;;;;;;;;72.67;54.00;;;;;6.86;57.62;99655.34;6281843;20;3641940;-45
2022/02/04 09:21:50;;;;;;;;;64.67;48.67;;;;;7.31;56.87;99653.25;6313508;20;2862784;-48
2022/02/04 09:24:22;;;;;;;;;67.00;51.67;;;;;7.21;57.72;99652.81;6311892;20;3626285;-45
2022/02/04 09:26:53;;;;;;;;;46.00;39.33;;;;;7.47;56.75;99656.88;6309918;20;2884735;-45
2022/02/04 09:29:22;;;;;;;;;76.33;57.33;;;;;7.95;56.66;99655.34;6311650;20;2894184;-46
2022/02/04 09:31:51;;;;;;;;;47.00;40.00;;;;;7.85;55.81;99649.63;6313519;20;2583684;-46
2022/02/04 09:34:20;;;;;;;;;46.00;38.00;;;;;7.64;55.85;99648.03;6279993;20;2864890;-45
2022/02/04 09:36:50;;;;;;;;;41.00;36.33;;;;;8.23;54.91;99646.75;6279190;20;3597285;-45
2022/02/04 09:39:19;;;;;;;;;61.00;47.67;;;;;8.08;54.76;99643.09;6310843;20;3614188;-45
2022/02/04 09:41:48;;;;;;;;;54.50;42.00;;;;;7.91;54.97;99632.41;6315138;20;2862830;-45
2022/02/04 09:44:18;;;;;;;;;63.67;50.33;;;;;8.36;54.47;99636.28;6285052;20;3609610;-46
2022/02/04 09:46:47;;;;;;;;;80.33;60.00;;;;;8.51;54.52;99643.53;6316385;20;3626273;-46
2022/02/04 09:49:27;;;;;;;;;103.33;84.33;;;;;8.35;54.60;99632.75;6312289;20;3686753;-46
2022/02/04 10:17:14;;;;;;;;;10.00;9.00;;;;;9.92;46.15;99623.06;6291612;20;2757655;-50
2022/02/04 10:22:26;;;;;;;;;9.60;7.20;;;;;10.04;45.74;99616.97;6348471;20;2745179;-46
2022/02/04 10:25:00;;;;;;;;;7.00;7.00;;;;;10.07;46.28;99624.81;6322426;20;2739809;-48
2022/02/04 10:27:35;;;;;;;;;11.50;7.50;;;;;10.26;45.43;99620.06;6292366;20;2763937;-45
2022/02/04 10:30:14;;;;;;;;;7.00;7.00;;;;;10.28;44.68;99612.81;6289977;20;2731643;-47
2022/02/04 10:32:52;;;;;;;;;12.60;7.60;;;;;10.19;44.35;99609.78;6347663;20;2773274;-46
2022/02/04 10:35:30;;;;;;;;;5.00;5.00;;;;;9.98;44.57;99609.28;6290222;20;2741029;-47
2022/02/04 10:38:18;;;;;;;;;13.20;9.40;;;;;10.09;44.96;99604.16;6308046;20;2784911;-49
2022/02/04 10:40:59;;;;;;;;;10.00;9.00;;;;;10.51;44.72;99605.16;6291365;20;2764942;-48
2022/02/04 10:49:10;;;;;;;;;9.00;7.50;;;;;10.43;44.19;99599.41;6291923;20;2737905;-47
2022/02/04 10:52:00;;;;;;;;;12.00;8.00;;;;;10.73;43.30;99586.72;6319062;20;2750255;-47
2022/02/04 11:00:22;;;;;;;;;4.00;4.00;;;;;10.67;44.30;99570.16;6287070;20;2746166;-46
2022/02/04 11:03:06;;;;;;;;;9.00;7.00;;;;;10.25;44.87;99572.72;6290310;20;2740867;-46
2022/02/04 11:05:51;;;;;;;;;10.50;9.50;;;;;10.19;44.91;99578.47;6285615;20;2775245;-50
2022/02/04 11:34:28;;;;;;;;;4.00;3.00;;;;;11.14;43.41;99533.97;6284961;20;2756600;-44
2022/02/04 11:57:01;;;;;;;;;10.00;10.00;;;;;10.56;45.84;99511.78;6283454;20;2794025;-45
2022/02/04 11:59:47;;;;;;;;;11.00;8.71;;;;;10.80;45.45;99512.00;6325685;20;1800330;-45
2022/02/04 12:02:33;;;;;;;;;8.00;8.00;;;;;10.31;45.94;99507.97;6321513;20;2744003;-47
2022/02/04 12:05:14;;;;;;;;;11.00;9.00;;;;;10.48;45.49;99508.72;6315113;20;2759707;-45
2022/02/04 12:07:56;;;;;;;;;10.00;10.00;;;;;10.49;45.53;99499.72;6283431;20;2779534;-45
2022/02/04 12:10:30;;;;;;;;;7.50;7.50;;;;;10.76;45.41;99505.09;6290089;20;2746090;-46
2022/02/04 12:13:09;;;;;;;;;11.43;9.00;;;;;10.58;45.58;99499.09;6355229;20;1810737;-47
2022/02/04 12:16:07;;;;;;;;;10.60;9.20;;;;;10.48;45.78;99498.00;6343601;20;2764841;-46
2022/02/04 12:18:39;;;;;;;;;8.50;8.50;;;;;10.70;45.80;99487.56;6284077;20;2751434;-44
2022/02/04 12:21:11;;;;;;;;;10.00;9.00;;;;;10.61;45.50;99492.66;6290130;20;2759657;-45
2022/02/04 12:23:43;;;;;;;;;13.00;6.00;;;;;10.21;46.75;99490.69;6282667;20;2759660;-45
2022/02/04 12:26:33;;;;;;;;;10.00;9.71;;;;;10.68;45.71;99478.75;6326118;20;1811314;-48
2022/02/04 12:29:06;;;;;;;;;13.80;10.60;;;;;10.91;45.87;99476.38;6338868;20;2789923;-45
2022/02/04 12:31:43;;;;;;;;;12.00;9.00;;;;;11.22;45.92;99477.88;6288531;20;2771107;-45
2022/02/04 12:34:18;;;;;;;;;10.40;9.60;;;;;11.39;44.44;99465.97;6312684;20;2796195;-45
2022/02/04 12:36:59;;;;;;;;;14.00;10.50;;;;;11.36;45.40;99463.50;6287523;20;2789934;-45
2022/02/04 12:39:36;;;;;;;;;10.00;7.00;;;;;11.34;45.10;99462.75;6291004;20;2760680;-45
2022/02/04 12:42:09;;;;;;;;;12.00;11.00;;;;;11.40;43.92;99470.38;6284925;20;2780491;-44
2022/02/04 12:44:42;;;;;;;;;17.00;11.00;;;;;11.60;43.01;99469.00;6284837;20;2796083;-44
2022/02/04 12:47:20;;;;;;;;;9.00;9.00;;;;;11.56;44.07;99465.69;6287998;20;2748407;-47
2022/02/04 12:49:56;;;;;;;;;9.50;8.00;;;;;11.57;43.30;99466.53;6287818;20;2758625;-49
2022/02/04 12:52:30;;;;;;;;;10.80;10.80;;;;;11.20;44.77;99464.53;6310768;20;2789845;-46
2022/02/04 12:55:08;;;;;;;;;13.00;11.00;;;;;11.33;44.51;99456.50;6286119;20;2789966;-47
2022/02/04 12:57:44;;;;;;;;;9.00;9.00;;;;;10.89;44.77;99454.13;6288605;20;2750247;-45
2022/02/04 13:08:39;;;;;;;;;11.40;9.00;;;;;11.17;44.62;99437.88;6312781;20;2766949;-47
2022/02/04 13:11:16;;;;;;;;;10.00;10.00;;;;;11.55;43.98;99446.94;6284372;20;2785679;-45
2022/02/04 13:13:50;;;;;;;;;11.60;11.20;;;;;11.28;44.81;99445.22;6311860;20;2789842;-46
2022/02/04 13:16:30;;;;;;;;;18.33;12.33;;;;;11.28;45.16;99445.22;6283423;20;3553342;-47
2022/02/04 13:19:02;;;;;;;;;11.50;10.00;;;;;11.19;45.04;99438.66;6316981;20;2794144;-44
2022/02/04 13:21:33;;;;;;;;;14.67;11.00;;;;;11.28;44.33;99433.59;6283874;20;2790937;-45
2022/02/04 13:24:05;;;;;;;;;16.00;14.00;;;;;11.47;44.16;99434.03;6313715;20;3537931;-46
2022/02/04 13:26:35;;;;;;;;;11.33;10.67;;;;;11.08;45.14;99433.13;6313643;20;2792079;-46
2022/02/04 13:29:06;;;;;;;;;10.40;10.40;;;;;11.32;44.92;99424.34;6342738;20;2786794;-45
2022/02/04 13:31:37;;;;;;;;;17.00;13.00;;;;;11.64;45.13;99435.56;6288442;20;2798207;-47
2022/02/04 13:34:13;;;;;;;;;11.40;10.40;;;;;11.63;44.25;99433.84;6309674;20;2789849;-45
2022/02/04 13:36:49;;;;;;;;;14.50;11.00;;;;;11.43;44.66;99432.56;6287836;20;2786735;-46
2022/02/04 13:39:28;;;;;;;;;13.67;10.67;;;;;11.71;44.60;99423.41;6286679;20;2800332;-45
2022/02/04 13:47:34;;;;;;;;;12.00;12.00;;;;;11.80;43.71;99427.28;6284035;20;2793996;-46
2022/02/04 13:58:37;;;;;;;;;11.20;10.20;;;;;11.42;45.35;99415.53;6335446;20;2780502;-48
2022/02/04 14:03:50;;;;;;;;;25.00;19.33;;;;;11.48;45.30;99418.75;6283966;20;3580471;-45
2022/02/04 14:06:28;;;;;;;;;84.33;61.00;;;;;11.14;45.92;99421.13;6279115;20;3652317;-48
2022/02/04 14:09:14;;;;;;;;;41.67;37.00;;;;;11.03;46.14;99418.28;6279299;20;2858698;-48
2022/02/04 14:11:44;;;;;;;;;17.00;13.00;;;;;11.36;45.52;99428.56;6310136;20;2825417;-46
2022/02/04 14:14:26;;;;;;;;;21.00;18.00;;;;;11.10;46.17;99420.44;6280843;20;2500281;-45
2022/02/04 14:17:02;;;;;;;;;18.00;18.00;;;;;11.03;46.55;99424.50;6285057;20;2824342;-45
2022/02/04 14:19:31;;;;;;;;;35.00;29.00;;;;;10.93;47.41;99420.75;6281425;20;2870155;-46
2022/02/04 14:22:02;;;;;;;;;23.00;22.00;;;;;10.75;47.58;99426.38;6308310;20;2844021;-46
2022/02/04 14:24:30;;;;;;;;;27.50;20.00;;;;;10.69;47.55;99426.78;6278967;20;2856573;-45
2022/02/04 14:27:00;;;;;;;;;32.67;25.67;;;;;10.40;47.82;99430.50;6277327;20;2860769;-45
2022/02/04 14:29:43;;;;;;;;;29.00;25.00;;;;;10.50;47.81;99423.56;6307302;20;2847186;-47
2022/02/04 14:32:24;;;;;;;;;32.00;26.50;;;;;10.26;48.27;99429.53;6278668;20;2852690;-47
2022/02/04 14:54:33;;;;;;;;;45.67;34.00;;;;;10.41;48.19;99445.66;6279945;20;3609719;-45
2022/02/04 15:00:20;;;;;;;;;42.33;33.33;;;;;10.45;48.11;99442.69;6311700;20;3630498;-46
2022/02/04 15:03:12;;;;;;;;;36.67;31.33;;;;;10.06;49.06;99433.50;6287155;20;3606579;-45
2022/02/04 15:05:45;;;;;;;;;29.00;28.00;;;;;10.36;48.33;99434.34;6285922;20;2854411;-47
2022/02/04 15:08:19;;;;;;;;;44.50;39.00;;;;;10.28;49.23;99433.03;6284979;20;2863805;-46
2022/02/04 15:10:49;;;;;;;;;51.33;40.33;;;;;10.39;48.56;99434.16;6287936;20;3601285;-47
2022/02/04 15:13:18;;;;;;;;;36.33;31.33;;;;;10.09;49.25;99437.81;6283231;20;2866121;-49
2022/02/04 15:15:48;;;;;;;;;39.00;35.00;;;;;9.97;49.77;99433.22;6320030;20;3591871;-48
2022/02/04 15:18:17;;;;;;;;;31.50;25.00;;;;;9.90;49.12;99432.78;6282445;20;2851288;-46
2022/02/04 15:20:46;;;;;;;;;40.67;35.33;;;;;10.03;49.23;99422.09;6284768;20;2862807;-49
2022/02/04 15:23:16;;;;;;;;;38.00;32.00;;;;;9.98;49.18;99422.41;6316098;20;3608602;-50
2022/02/04 15:25:51;;;;;;;;;49.00;38.00;;;;;10.19;48.77;99424.66;6285456;20;3615882;-47
2022/02/04 15:30:56;;;;;;;;;109.50;81.50;;;;;10.03;50.10;99438.19;6313921;20;4460630;-45
2022/02/04 15:33:30;;;;;;;;;87.67;63.00;;;;;9.43;50.46;99431.22;6280734;20;3653398;-45
2022/02/04 15:35:58;;;;;;;;;57.00;49.00;;;;;9.40;51.38;99434.94;6282574;20;2842976;-45
2022/02/04 15:38:26;;;;;;;;;142.00;120.00;;;;;9.43;50.31;99434.75;6279172;20;1957640;-48
2022/02/04 15:40:58;;;;;;;;;154.50;130.00;;;;;9.28;50.74;99424.94;6281156;20;4501209;-47
2022/02/04 15:43:30;;;;;;;;;139.50;113.00;;;;;9.10;51.89;99426.91;6284179;20;4487715;-46
2022/02/04 16:04:47;;;;;;;;;79.33;55.67;;;;;8.32;53.21;99434.09;6309197;20;3657565;-45
2022/02/04 16:07:18;;;;;;;;;56.00;43.00;;;;;8.49;52.76;99446.56;6313868;20;2859683;-46
2022/02/04 16:09:58;;;;;;;;;61.00;46.00;;;;;8.63;52.79;99432.38;6283617;20;3633580;-46
2022/02/04 16:12:39;;;;;;;;;59.33;46.00;;;;;8.54;53.16;99439.13;6313482;20;2869089;-47
2022/02/04 16:15:20;;;;;;;;;79.67;57.67;;;;;8.41;53.65;99438.97;6312153;20;3646048;-45
2022/02/04 16:17:55;;;;;;;;;77.67;56.33;;;;;8.67;52.72;99447.31;6314341;20;3651254;-45
2022/02/04 16:20:53;;;;;;;;;65.33;50.00;;;;;8.45;53.79;99445.88;6314732;20;3612863;-45
2022/02/04 16:28:43;;;;;;;;;80.00;60.67;;;;;7.99;55.72;99445.72;6277781;20;3650850;-47
2022/02/04 16:31:17;;;;;;;;;87.67;65.00;;;;;7.91;55.98;99439.94;6312320;20;3631476;-45
2022/02/04 16:33:49;;;;;;;;;86.67;64.33;;;;;7.99;55.91;99444.88;6313930;20;3665850;-45
2022/02/04 16:36:22;;;;;;;;;86.33;64.67;;;;;8.07;55.59;99445.31;6280140;20;3656557;-44
2022/02/04 16:38:53;;;;;;;;;94.33;71.00;;;;;8.06;56.07;99455.16;6280735;20;3674233;-44
2022/02/04 16:41:44;;;;;;;;;89.67;72.00;;;;;8.24;55.11;99455.06;6280207;20;3659770;-46
2022/02/04 16:44:15;;;;;;;;;109.67;90.00;;;;;7.78;56.02;99442.41;6278223;20;3682532;-44
2022/02/04 16:46:46;;;;;;;;;111.33;92.00;;;;;8.07;55.53;99440.81;6281664;20;3691039;-44
2022/02/04 16:49:16;;;;;;;;;107.67;91.33;;;;;7.81;55.69;99441.38;6279390;20;3691918;-45
2022/02/04 16:51:46;;;;;;;;;112.67;89.67;;;;;7.73;56.30;99444.47;6281423;20;3684617;-46
2022/02/04 16:54:18;;;;;;;;;119.00;100.50;;;;;7.84;55.82;99450.09;6276955;20;3704605;-45
2022/02/04 16:56:49;;;;;;;;;107.33;86.67;;;;;7.65;56.48;99447.53;6313924;20;3688751;-45
2022/02/04 16:59:20;;;;;;;;;129.75;112.25;;;;;7.51;55.91;99446.56;6277000;20;4491927;-45
2022/02/04 17:01:48;;;;;;;;;157.00;131.00;;;;;7.81;55.29;99439.56;6304338;20;1963977;-44
2022/02/04 17:04:17;;;;;;;;;143.00;125.00;;;;;7.46;55.76;99438.78;6273529;20;1954426;-45
2022/02/04 17:07:01;;;;;;;;;147.86;120.43;;;;;7.52;56.56;99438.47;6290328;20;2533670;-46
2022/02/04 17:09:36;;;;;;;;;123.00;111.50;;;;;7.46;57.05;99433.44;6281206;20;4466875;-46
2022/02/04 17:12:09;;;;;;;;;111.00;96.50;;;;;7.02;57.83;99433.94;6279496;20;3557676;-45
2022/02/04 17:14:40;;;;;;;;;127.00;103.25;;;;;7.18;57.80;99426.88;6308048;20;3705411;-44
2022/02/04 17:17:41;;;;;;;;;128.00;100.25;;;;;6.90;58.27;99423.88;6279684;20;3717989;-45
2022/02/04 17:20:14;;;;;;;;;130.25;105.25;;;;;7.09;57.56;99427.34;6310258;20;3712867;-45
2022/02/04 17:22:46;;;;;;;;;132.50;112.00;;;;;7.06;57.54;99427.53;6277197;20;4486718;-45
2022/02/04 17:25:18;;;;;;;;;116.75;89.00;;;;;7.24;56.99;99423.00;6279489;20;3713260;-46
2022/02/04 17:27:47;;;;;;;;;100.33;81.67;;;;;7.03;57.90;99425.88;6312275;20;3685630;-44
2022/02/04 17:30:19;;;;;;;;;184.25;139.50;;;;;6.69;58.41;99421.38;6279555;20;4480409;-46
2022/02/04 17:32:51;;;;;;;;;144.50;114.00;;;;;7.19;57.63;99428.63;6309826;20;4482471;-46
2022/02/04 17:35:25;;;;;;;;;107.00;75.33;;;;;6.88;58.04;99417.78;6310923;20;3702315;-45
2022/02/04 17:37:57;;;;;;;;;145.00;112.00;;;;;6.56;59.09;99418.44;6274275;20;1960828;-44
2022/02/04 17:40:29;;;;;;;;;112.25;89.75;;;;;6.39;59.70;99429.06;6278559;20;3695038;-44
2022/02/04 17:43:00;;;;;;;;;127.00;103.00;;;;;6.43;59.77;99430.66;6277849;20;3719074;-44
2022/02/04 17:45:32;;;;;;;;;121.25;93.25;;;;;6.86;58.53;99420.53;6276366;20;3688890;-46
2022/02/04 17:48:08;;;;;;;;;100.00;83.33;;;;;6.67;58.70;99412.59;6309307;20;3683565;-45
2022/02/04 17:53:55;;;;;;;;;92.33;74.33;;;;;6.69;58.69;99421.38;6309452;20;3645047;-45
2022/02/04 17:56:35;;;;;;;;;100.00;86.00;;;;;7.00;57.88;99422.47;6312001;20;3672599;-47
2022/02/04 17:59:31;;;;;;;;;114.67;96.67;;;;;6.94;58.25;99425.47;6276518;20;3687912;-44
2022/02/04 18:07:23;;;;;;;;;319.20;238.00;;;;;6.62;58.72;99425.28;6281051;20;4526280;-47
2022/02/04 18:09:53;;;;;;;;;178.25;138.00;;;;;6.55;58.87;99419.38;6311368;20;4479406;-46
2022/02/04 18:12:24;;;;;;;;;163.50;128.00;;;;;6.43;59.97;99421.81;6275917;20;1955528;-46